Time;durP1;ratioP1;P1;durP2;ratioP2;P2;SDS_P1;SDS_P2;PMS_P1;PMS_P2;Temp;Humidity;BMP_temperature;BMP_pressure;BME280_temperature;BME280_humidity;BME280_pressure;Samples;Min_cycle;Max_cycle;Signal;HPM_P1;HPM_P2
2021/11/11 00:00:11;;;;;;;105.20;56.65;;;;;;;1.35;84.33;101448.88;1784754;80;21011;-84
2021/11/11 00:02:40;;;;;;;100.02;55.33;;;;;;;1.37;84.33;101443.91;1768511;81;21460;-84
2021/11/11 00:05:08;;;;;;;107.72;56.02;;;;;;;1.38;84.37;101446.92;1768638;81;21467;-84
2021/11/11 00:07:34;;;;;;;89.28;48.25;;;;;;;1.36;84.36;101447.95;1759936;81;21019;-84
2021/11/11 00:10:00;;;;;;;98.70;51.45;;;;;;;1.35;84.40;101453.67;1729330;83;21035;-84
2021/11/11 00:12:27;;;;;;;106.90;56.63;;;;;;;1.38;84.40;101454.81;1727709;83;21002;-84
2021/11/11 00:14:53;;;;;;;94.00;52.25;;;;;;;1.38;84.40;101455.27;1727733;83;21795;-84
2021/11/11 00:17:20;;;;;;;94.03;49.08;;;;;;;1.38;84.42;101450.87;1727644;83;21502;-84
2021/11/11 00:19:46;;;;;;;99.05;49.98;;;;;;;1.38;84.42;101450.87;1727526;83;21015;-84
2021/11/11 00:22:13;;;;;;;105.87;50.12;;;;;;;1.40;84.45;101455.59;1727655;82;21101;-84
2021/11/11 00:24:39;;;;;;;101.85;48.80;;;;;;;1.42;84.45;101452.40;1727711;83;21078;-84
2021/11/11 00:27:05;;;;;;;124.30;61.73;;;;;;;1.43;84.45;101448.84;1727151;82;21058;-85
2021/11/11 00:29:31;;;;;;;108.35;59.00;;;;;;;1.44;84.48;101445.26;1727296;82;21618;-84
2021/11/11 00:31:57;;;;;;;110.00;62.62;;;;;;;1.49;84.50;101440.61;1727783;82;21559;-84
2021/11/11 00:34:23;;;;;;;115.10;63.85;;;;;;;1.50;84.50;101446.25;1727537;83;21602;-84
2021/11/11 00:36:49;;;;;;;104.60;52.85;;;;;;;1.50;84.51;101444.94;1727527;83;21559;-84
2021/11/11 00:39:15;;;;;;;106.27;52.78;;;;;;;1.47;84.54;101445.12;1727473;83;22189;-84
2021/11/11 00:41:41;;;;;;;89.45;47.25;;;;;;;1.44;84.57;101445.26;1727198;82;21515;-84
2021/11/11 00:44:07;;;;;;;86.42;46.73;;;;;;;1.40;84.60;101446.39;1727643;83;21065;-84
2021/11/11 00:46:34;;;;;;;142.30;82.97;;;;;;;1.43;84.60;101448.84;1727633;83;21641;-84
2021/11/11 00:49:06;;;;;;;107.72;58.70;;;;;;;1.44;84.58;101450.52;1727503;82;21062;-84
2021/11/11 00:51:28;;;;;;;110.00;59.40;;;;;;;1.43;84.61;101464.61;1727083;83;21202;-84
2021/11/11 00:53:54;;;;;;;97.85;55.40;;;;;;;1.40;84.62;101452.96;1727533;82;21066;-84
2021/11/11 00:56:21;;;;;;;189.52;103.42;;;;;;;1.38;84.65;101458.75;1727741;82;21062;-84
2021/11/11 00:58:47;;;;;;;147.15;73.90;;;;;;;1.37;84.65;101458.86;1727717;82;21007;-84
2021/11/11 01:01:13;;;;;;;106.58;53.15;;;;;;;1.39;84.65;101454.34;1727469;82;21034;-84
2021/11/11 01:03:42;;;;;;;102.60;51.48;;;;;;;1.38;84.66;101459.21;1727251;82;21132;-84
2021/11/11 01:06:09;;;;;;;90.92;50.05;;;;;;;1.29;84.67;101455.80;1727655;82;20999;-84
2021/11/11 01:08:35;;;;;;;98.58;49.60;;;;;;;1.21;84.68;101447.48;1733555;82;21475;-84
2021/11/11 01:11:02;;;;;;;100.22;50.58;;;;;;;1.10;84.66;101437.56;1773203;80;20979;-84
2021/11/11 01:13:28;;;;;;;100.75;51.53;;;;;;;1.09;84.68;101438.48;1773337;80;21016;-84
2021/11/11 01:15:54;;;;;;;94.32;49.53;;;;;;;1.09;84.70;101441.11;1773177;81;21055;-84
2021/11/11 01:18:21;;;;;;;89.62;45.63;;;;;;;1.06;84.70;101438.66;1773030;81;20876;-84
2021/11/11 01:20:47;;;;;;;102.00;47.53;;;;;;;1.05;84.73;101438.76;1757453;81;21011;-84
2021/11/11 01:23:13;;;;;;;165.62;76.77;;;;;;;1.02;84.75;101440.25;1757524;81;21030;-84
2021/11/11 01:25:39;;;;;;;108.17;50.23;;;;;;;0.99;84.77;101432.05;1773268;81;21024;-84
2021/11/11 01:28:07;;;;;;;494.80;215.60;;;;;;;0.99;84.77;101432.05;1757168;81;21142;-84
2021/11/11 01:30:34;;;;;;;324.92;140.18;;;;;;;1.01;84.77;101435.45;1757284;81;21255;-84
2021/11/11 01:33:01;;;;;;;268.27;119.13;;;;;;;1.00;84.77;101438.55;1744948;81;21137;-84
2021/11/11 01:35:27;;;;;;;251.85;114.67;;;;;;;0.99;84.77;101435.52;1757123;81;21771;-84
2021/11/11 01:37:53;;;;;;;143.65;67.85;;;;;;;1.00;84.78;101436.38;1773188;81;21519;-84
2021/11/11 01:40:19;;;;;;;239.72;106.95;;;;;;;0.99;84.80;101428.95;1757475;81;21054;-83
2021/11/11 01:42:48;;;;;;;197.20;92.57;;;;;;;0.98;84.81;101423.81;1772804;81;21007;-84
2021/11/11 01:45:14;;;;;;;152.25;70.67;;;;;;;0.98;84.84;101415.93;1757678;81;21054;-83
2021/11/11 01:47:41;;;;;;;125.78;57.93;;;;;;;0.98;84.81;101400.17;1773325;81;21491;-83
2021/11/11 01:50:08;;;;;;;138.15;63.30;;;;;;;0.92;84.81;101400.48;1757431;81;21073;-84
2021/11/11 01:52:34;;;;;;;115.97;54.35;;;;;;;0.92;84.78;101405.73;1773328;81;21839;-83
2021/11/11 01:55:01;;;;;;;119.67;56.33;;;;;;;0.93;84.81;101412.69;1757344;81;21003;-84
2021/11/11 01:57:28;;;;;;;101.97;48.83;;;;;;;0.96;84.81;101412.52;1773233;80;21378;-84
2021/11/11 01:59:54;;;;;;;97.57;48.68;;;;;;;0.96;84.84;101416.46;1757658;81;21058;-83
2021/11/11 02:02:27;;;;;;;86.28;44.33;;;;;;;0.98;84.83;101410.67;1772900;81;21550;-84
2021/11/11 02:04:53;;;;;;;74.37;39.18;;;;;;;1.05;84.82;101414.66;1757460;81;21248;-83
2021/11/11 02:07:19;;;;;;;64.05;36.75;;;;;;;1.10;84.80;101415.70;1772914;81;21004;-84
2021/11/11 02:09:46;;;;;;;68.52;38.23;;;;;;;1.17;84.80;101417.91;1742197;81;21008;-84
2021/11/11 02:12:12;;;;;;;85.45;44.80;;;;;;;1.23;84.80;101412.30;1729215;83;21487;-84
2021/11/11 02:14:38;;;;;;;72.82;39.60;;;;;;;1.27;84.80;101409.89;1727724;83;21492;-84
2021/11/11 02:17:04;;;;;;;76.28;41.13;;;;;;;1.26;84.83;101408.22;1727576;83;21194;-84
2021/11/11 02:19:31;;;;;;;80.90;43.68;;;;;;;1.20;84.85;101412.48;1727386;82;21571;-84
2021/11/11 02:21:57;;;;;;;81.47;45.28;;;;;;;1.13;84.88;101409.81;1727609;83;21011;-84
2021/11/11 02:24:24;;;;;;;78.02;43.00;;;;;;;1.07;84.91;101414.09;1727470;83;21019;-83
2021/11/11 02:26:50;;;;;;;92.47;48.42;;;;;;;1.04;84.92;101424.78;1727651;82;21022;-84
2021/11/11 02:29:17;;;;;;;93.85;47.45;;;;;;;1.02;84.96;101413.52;1727539;83;21101;-84
2021/11/11 02:31:44;;;;;;;85.45;44.93;;;;;;;1.02;84.95;101410.89;1727669;82;21026;-84
2021/11/11 02:34:12;;;;;;;93.75;46.35;;;;;;;1.08;84.94;101401.82;1727525;82;21051;-84
2021/11/11 02:37:00;;;;;;;78.45;42.40;;;;;;;1.10;84.94;101396.85;1727317;83;21006;-83
2021/11/11 02:39:35;;;;;;;99.55;54.23;;;;;;;1.09;84.94;101394.33;1727321;82;21090;-84
2021/11/11 02:42:02;;;;;;;92.30;49.63;;;;;;;1.04;84.97;101395.03;1727503;83;21532;-83
2021/11/11 02:44:31;;;;;;;76.20;42.65;;;;;;;1.01;85.01;101403.94;1727638;83;20995;-84
2021/11/11 02:46:57;;;;;;;83.47;45.70;;;;;;;0.95;85.02;101405.11;1727420;83;21038;-84
2021/11/11 02:49:32;;;;;;;82.10;43.55;;;;;;;0.97;85.04;101408.98;1727536;82;21050;-84
2021/11/11 02:51:59;;;;;;;76.90;42.60;;;;;;;0.96;85.06;101409.44;1727696;82;21007;-84
2021/11/11 02:54:25;;;;;;;78.05;45.95;;;;;;;0.97;85.05;101405.03;1727537;82;21156;-84
2021/11/11 02:56:51;;;;;;;82.53;46.10;;;;;;;0.96;85.06;101399.39;1727646;82;21043;-84
2021/11/11 02:59:17;;;;;;;76.92;42.23;;;;;;;0.93;85.06;101395.63;1727217;82;21094;-84
2021/11/11 03:01:43;;;;;;;76.25;43.33;;;;;;;0.94;85.07;101389.45;1727353;83;21035;-84
2021/11/11 03:04:09;;;;;;;71.00;41.02;;;;;;;0.94;85.08;101388.14;1727453;82;21023;-84
2021/11/11 03:06:40;;;;;;;73.65;41.02;;;;;;;0.95;85.12;101386.72;1727595;83;21164;-84
2021/11/11 03:09:06;;;;;;;83.12;43.63;;;;;;;0.93;85.10;101388.59;1757009;80;21492;-84
2021/11/11 03:11:32;;;;;;;80.17;44.83;;;;;;;0.89;85.12;101389.70;1760665;81;21555;-84
2021/11/11 03:13:58;;;;;;;84.00;44.60;;;;;;;0.91;85.13;101400.13;1773824;80;21021;-84
2021/11/11 03:16:24;;;;;;;83.82;46.83;;;;;;;0.90;85.14;101383.98;1773787;80;21071;-84
2021/11/11 03:18:51;;;;;;;87.80;47.75;;;;;;;0.89;85.14;101382.28;1773799;80;21120;-84
2021/11/11 03:21:17;;;;;;;91.32;47.25;;;;;;;0.89;85.16;101382.28;1773816;80;21016;-85
2021/11/11 03:23:43;;;;;;;78.65;43.90;;;;;;;0.92;85.14;101383.42;1773845;80;21015;-84
2021/11/11 03:26:09;;;;;;;78.02;44.00;;;;;;;0.93;85.13;101388.59;1773813;80;20912;-84
2021/11/11 03:28:35;;;;;;;67.67;37.83;;;;;;;0.92;85.15;101397.86;1773898;80;21019;-84
2021/11/11 03:31:01;;;;;;;71.90;39.50;;;;;;;0.88;85.18;101398.49;1773956;80;21487;-84
2021/11/11 03:33:27;;;;;;;66.00;38.55;;;;;;;0.88;85.19;101397.67;1773686;80;21487;-84
2021/11/11 03:35:53;;;;;;;67.40;37.08;;;;;;;0.85;85.21;101397.81;1773711;80;21251;-84
2021/11/11 03:38:19;;;;;;;69.15;37.73;;;;;;;0.83;85.21;101399.69;1773817;80;20987;-84
2021/11/11 03:40:46;;;;;;;69.27;38.02;;;;;;;0.79;85.22;101401.63;1773936;80;21015;-84
2021/11/11 03:43:12;;;;;;;71.42;39.45;;;;;;;0.73;85.24;101401.12;1773748;80;21099;-84
2021/11/11 03:45:38;;;;;;;71.00;37.60;;;;;;;0.69;85.26;101396.96;1773794;80;21047;-84
2021/11/11 03:48:05;;;;;;;66.45;38.05;;;;;;;0.62;85.27;101399.53;1773810;80;21055;-84
2021/11/11 03:50:31;;;;;;;71.17;39.15;;;;;;;0.58;85.30;101405.88;1773789;80;21047;-84
2021/11/11 03:52:57;;;;;;;72.65;38.17;;;;;;;0.58;85.31;101399.31;1774058;80;21063;-84
2021/11/11 03:55:25;;;;;;;73.37;41.50;;;;;;;0.58;85.31;101402.78;1773755;80;21939;-84
2021/11/11 03:57:53;;;;;;;84.15;45.25;;;;;;;0.55;85.31;101395.08;1773890;80;21018;-84
2021/11/11 04:00:19;;;;;;;82.70;43.28;;;;;;;0.56;85.30;101388.06;1773813;80;21563;-84
2021/11/11 04:02:45;;;;;;;75.78;41.18;;;;;;;0.56;85.30;101395.94;1773647;80;21504;-84
2021/11/11 04:05:11;;;;;;;67.17;37.15;;;;;;;0.58;85.29;101396.69;1773872;80;21476;-84
2021/11/11 04:07:37;;;;;;;62.15;34.15;;;;;;;0.52;85.29;101384.75;1773829;80;22091;-84
2021/11/11 04:10:05;;;;;;;70.65;38.23;;;;;;;0.50;85.29;101383.51;1773078;80;20864;-84
2021/11/11 04:12:31;;;;;;;80.47;40.67;;;;;;;0.51;85.31;101381.73;1773207;81;21351;-84
2021/11/11 04:14:57;;;;;;;71.25;37.40;;;;;;;0.52;85.30;101374.25;1773358;81;20991;-84
2021/11/11 04:17:23;;;;;;;59.63;34.98;;;;;;;0.50;85.31;101382.20;1773089;81;21003;-84
2021/11/11 04:19:49;;;;;;;61.70;35.68;;;;;;;0.47;85.29;101384.98;1773310;80;21083;-84
2021/11/11 04:22:15;;;;;;;71.47;38.95;;;;;;;0.44;85.33;101382.53;1773160;81;21432;-84
2021/11/11 04:24:42;;;;;;;74.03;40.00;;;;;;;0.41;85.32;101381.39;1757658;81;21536;-84
2021/11/11 04:29:41;;;;;;;71.65;38.45;;;;;;;0.41;85.30;101374.83;1753440;81;21062;-84
2021/11/11 04:32:07;;;;;;;67.78;36.53;;;;;;;0.41;85.31;101372.20;1756514;81;21200;-84
2021/11/11 04:34:34;;;;;;;65.83;34.50;;;;;;;0.40;85.31;101364.41;1773012;81;21543;-84
2021/11/11 05:03:43;;;;;;;60.08;32.90;;;;;;;0.29;85.35;101349.69;1773214;81;20999;-84
2021/11/11 05:06:07;;;;;;;61.65;31.95;;;;;;;0.25;85.37;101349.47;1757135;81;21024;-84
2021/11/11 05:08:33;;;;;;;62.85;33.20;;;;;;;0.25;85.34;101352.94;1773103;81;20983;-84
2021/11/11 05:10:59;;;;;;;57.83;32.55;;;;;;;0.25;85.36;101352.94;1757500;81;21977;-84
2021/11/11 05:13:25;;;;;;;52.62;31.05;;;;;;;0.28;85.37;101353.27;1773113;81;21074;-84
2021/11/11 05:15:51;;;;;;;57.40;32.42;;;;;;;0.30;85.35;101354.02;1757418;81;21007;-84
2021/11/11 05:18:17;;;;;;;62.08;32.93;;;;;;;0.31;85.37;101365.75;1773215;81;21059;-84
2021/11/11 05:20:43;;;;;;;80.15;41.70;;;;;;;0.28;85.40;101368.52;1757292;81;21479;-84
2021/11/11 05:23:09;;;;;;;77.37;41.65;;;;;;;0.25;85.42;101366.05;1757632;81;21582;-85
2021/11/11 05:25:36;;;;;;;93.92;46.77;;;;;;;0.23;85.42;101371.01;1773182;81;21519;-84
2021/11/11 05:28:02;;;;;;;73.75;40.67;;;;;;;0.23;85.44;101370.55;1757393;81;21500;-85
2021/11/11 05:30:28;;;;;;;74.92;38.92;;;;;;;0.25;85.45;101367.83;1757538;81;21515;-84
2021/11/11 05:32:54;;;;;;;70.90;35.43;;;;;;;0.25;85.46;101375.70;1757528;81;21763;-85
2021/11/11 05:35:20;;;;;;;56.42;30.75;;;;;;;0.24;85.47;101376.19;1773271;81;21968;-85
2021/11/11 05:37:47;;;;;;;59.60;33.53;;;;;;;0.22;85.46;101371.47;1757558;81;21086;-84
2021/11/11 05:40:14;;;;;;;61.00;34.03;;;;;;;0.22;85.48;101376.71;1751024;77;21042;-84
2021/11/11 05:42:40;;;;;;;69.90;35.38;;;;;;;0.17;85.49;101376.13;1709670;82;21050;-84
2021/11/11 05:45:08;;;;;;;65.30;35.15;;;;;;;0.14;85.49;101384.61;1739882;82;21119;-84
2021/11/11 05:47:35;;;;;;;60.88;32.67;;;;;;;0.11;85.52;101384.28;1739813;82;21873;-86
2021/11/11 05:50:02;;;;;;;59.65;34.38;;;;;;;0.10;85.55;101385.23;1739726;81;21039;-84
2021/11/11 05:52:29;;;;;;;64.03;36.60;;;;;;;0.09;85.58;101387.92;1740329;81;21109;-85
2021/11/11 05:54:55;;;;;;;58.17;32.58;;;;;;;0.07;85.59;101378.81;1740195;80;21008;-86
2021/11/11 05:57:21;;;;;;;61.68;34.00;;;;;;;0.07;85.60;101376.68;1740460;82;21008;-85
2021/11/11 05:59:47;;;;;;;58.38;34.90;;;;;;;0.08;85.60;101377.04;1739972;82;21159;-84
2021/11/11 06:02:13;;;;;;;59.00;32.75;;;;;;;0.07;85.63;101379.30;1740357;81;21044;-85
2021/11/11 06:04:41;;;;;;;65.50;34.43;;;;;;;0.06;85.65;101373.20;1739923;82;21015;-84
2021/11/11 06:07:07;;;;;;;77.03;41.20;;;;;;;0.04;85.65;101375.04;1740340;82;21050;-85
2021/11/11 06:09:33;;;;;;;96.15;53.40;;;;;;;0.01;85.66;101377.83;1739828;82;21077;-85
2021/11/11 06:11:59;;;;;;;92.92;52.60;;;;;;;0.00;85.67;101384.02;1739694;82;21136;-85
2021/11/11 06:14:25;;;;;;;71.65;42.35;;;;;;;0.00;85.70;101381.39;1739645;82;21007;-85
2021/11/11 06:16:51;;;;;;;65.20;38.98;;;;;;;-0.02;85.68;101380.61;1739628;82;21058;-85
2021/11/11 06:19:17;;;;;;;73.52;41.90;;;;;;;-0.03;85.71;101382.37;1739836;82;21052;-85
2021/11/11 06:21:44;;;;;;;73.15;41.63;;;;;;;-0.01;85.72;101384.93;1739665;82;20995;-85
2021/11/11 06:24:10;;;;;;;64.25;36.88;;;;;;;-0.05;85.72;101380.77;1739656;82;21153;-85
2021/11/11 06:26:36;;;;;;;63.73;36.70;;;;;;;-0.07;85.71;101381.33;1739775;82;21022;-85
2021/11/11 06:29:02;;;;;;;115.92;57.23;;;;;;;-0.08;85.72;101384.41;1739730;82;21447;-86
2021/11/11 06:31:29;;;;;;;124.67;62.53;;;;;;;-0.06;85.75;101389.55;1739665;82;21471;-86
2021/11/11 06:33:54;;;;;;;148.07;64.97;;;;;;;-0.04;85.76;101394.27;1739764;82;20973;-85
2021/11/11 06:36:20;;;;;;;169.17;72.08;;;;;;;-0.02;85.79;101398.50;1739702;82;21183;-85
2021/11/11 06:38:47;;;;;;;191.03;74.30;;;;;;;-0.03;85.80;101397.25;1739393;82;21518;-85
2021/11/11 06:41:13;;;;;;;162.07;66.75;;;;;;;-0.03;85.80;101393.32;1736931;81;21011;-85
2021/11/11 06:43:40;;;;;;;231.57;96.90;;;;;;;-0.02;85.80;101396.34;1733267;82;21026;-86
2021/11/11 06:46:06;;;;;;;203.92;87.05;;;;;;;0.01;85.81;101393.55;1733787;82;21026;-86
2021/11/11 06:48:32;;;;;;;117.37;57.80;;;;;;;0.05;85.81;101391.16;1733935;82;21026;-85
2021/11/11 06:50:58;;;;;;;118.95;61.50;;;;;;;0.18;85.79;101391.36;1733638;82;21078;-86
2021/11/11 06:53:25;;;;;;;219.47;104.30;;;;;;;0.52;85.68;101389.15;1733616;82;21089;-83
2021/11/11 06:55:52;;;;;;;304.13;139.92;;;;;;;0.70;85.55;101386.86;1733876;82;21043;-83
2021/11/11 06:58:21;;;;;;;332.83;164.18;;;;;;;0.72;85.59;101392.86;1734108;82;21074;-84
2021/11/11 07:00:48;;;;;;;286.50;146.37;;;;;;;0.72;85.65;101386.30;1733690;82;21074;-83
2021/11/11 07:03:14;;;;;;;283.87;142.07;;;;;;;0.77;85.74;101383.81;1733711;82;21596;-83
2021/11/11 07:05:40;;;;;;;295.07;147.43;;;;;;;0.92;85.81;101383.42;1733893;82;21011;-83
2021/11/11 07:08:10;;;;;;;245.63;123.20;;;;;;;1.03;85.85;101388.93;1733857;82;21483;-83
2021/11/11 07:10:34;;;;;;;158.80;79.40;;;;;;;1.09;85.90;101382.02;1733381;82;21050;-84
2021/11/11 07:13:00;;;;;;;187.62;88.55;;;;;;;1.15;85.94;101384.32;1733762;82;21078;-83
2021/11/11 07:15:26;;;;;;;307.37;132.32;;;;;;;1.17;85.96;101386.38;1734803;81;21009;-83
2021/11/11 07:17:52;;;;;;;525.77;201.27;;;;;;;1.21;85.99;101397.11;1736530;81;21499;-83
2021/11/11 07:20:18;;;;;;;262.20;96.35;;;;;;;1.22;86.02;101400.13;1736242;82;21602;-83
2021/11/11 07:22:45;;;;;;;406.13;129.80;;;;;;;1.25;86.04;101397.32;1734641;82;21023;-83
2021/11/11 07:25:12;;;;;;;359.90;109.97;;;;;;;1.28;86.09;101394.52;1733842;82;21659;-83
2021/11/11 07:27:38;;;;;;;231.60;75.08;;;;;;;1.34;86.10;101383.65;1734590;82;21724;-83
2021/11/11 07:30:11;;;;;;;247.98;79.97;;;;;;;1.40;86.14;101377.22;1735816;82;21016;-83
2021/11/11 07:32:38;;;;;;;197.17;67.35;;;;;;;1.47;86.16;101375.94;1703596;82;21576;-83
2021/11/11 07:35:08;;;;;;;125.60;48.17;;;;;;;1.57;86.15;101376.23;1735404;82;21030;-84
2021/11/11 07:37:34;;;;;;;90.90;42.00;;;;;;;1.71;86.17;101373.66;1737717;82;21750;-84
2021/11/11 07:40:00;;;;;;;72.47;37.63;;;;;;;1.88;86.18;101374.83;1735098;81;21157;-83
2021/11/11 07:42:26;;;;;;;56.40;31.97;;;;;;;2.18;86.18;101374.30;1733403;82;21050;-84
2021/11/11 07:44:52;;;;;;;54.05;31.85;;;;;;;2.46;86.15;101374.31;1733449;82;21050;-84
2021/11/11 07:47:26;;;;;;;48.40;30.15;;;;;;;2.76;86.12;101377.31;1733732;82;21023;-83
2021/11/11 07:49:47;;;;;;;55.73;33.30;;;;;;;2.99;86.10;101380.67;1732443;82;21229;-84
2021/11/11 07:52:14;;;;;;;58.55;34.33;;;;;;;3.19;86.08;101373.65;1737885;82;21466;-83
2021/11/11 07:54:40;;;;;;;54.18;32.90;;;;;;;3.37;86.08;101373.78;1740586;82;21002;-83
2021/11/11 07:57:06;;;;;;;50.33;31.60;;;;;;;3.55;86.09;101362.97;1740775;82;21011;-84
2021/11/11 07:59:34;;;;;;;51.68;30.55;;;;;;;3.69;86.09;101363.75;1739983;82;21481;-83
2021/11/11 08:02:00;;;;;;;54.95;30.10;;;;;;;3.83;86.09;101365.45;1737333;82;21137;-84
2021/11/11 08:04:26;;;;;;;58.23;37.48;;;;;;;3.94;86.09;101365.08;1734799;82;20920;-83
2021/11/11 08:06:52;;;;;;;52.60;32.33;;;;;;;4.08;86.09;101360.68;1734743;82;21088;-83
2021/11/11 08:09:18;;;;;;;59.27;33.73;;;;;;;4.18;86.10;101358.63;1734580;82;21508;-83
2021/11/11 08:11:44;;;;;;;55.55;38.48;;;;;;;4.28;86.11;101364.95;1724523;81;21116;-83
2021/11/11 08:14:12;;;;;;;56.53;34.10;;;;;;;4.37;86.10;101365.63;1723034;82;21232;-84
2021/11/11 08:16:38;;;;;;;51.92;33.85;;;;;;;4.46;86.06;101373.40;1739790;82;21065;-83
2021/11/11 08:19:04;;;;;;;51.23;32.78;;;;;;;4.53;86.05;101367.59;1735063;82;20923;-84
2021/11/11 08:21:30;;;;;;;60.05;34.25;;;;;;;4.63;86.04;101366.92;1735119;81;21059;-84
2021/11/11 08:23:56;;;;;;;49.10;32.42;;;;;;;4.72;86.02;101368.91;1734895;82;21579;-84
2021/11/11 08:26:22;;;;;;;50.30;34.23;;;;;;;4.80;86.00;101371.86;1734734;82;21483;-84
2021/11/11 08:28:48;;;;;;;46.25;29.92;;;;;;;4.88;86.00;101373.02;1734647;82;21110;-84
2021/11/11 08:31:14;;;;;;;48.65;30.60;;;;;;;4.96;85.94;101367.19;1733955;82;20891;-84
2021/11/11 08:33:39;;;;;;;49.67;32.75;;;;;;;4.99;85.91;101364.31;1734270;81;20987;-84
2021/11/11 08:36:06;;;;;;;47.05;31.37;;;;;;;5.04;85.86;101372.73;1734732;82;21008;-84
2021/11/11 08:38:32;;;;;;;46.33;30.05;;;;;;;5.06;85.83;101373.48;1734716;82;21056;-83
2021/11/11 08:40:58;;;;;;;44.60;30.57;;;;;;;5.09;85.82;101386.48;1736814;81;21046;-83
2021/11/11 08:43:24;;;;;;;45.70;29.90;;;;;;;5.11;85.75;101375.78;1732105;82;21454;-84
2021/11/11 08:45:50;;;;;;;52.05;30.48;;;;;;;5.11;85.71;101384.56;1732279;82;21090;-84
2021/11/11 08:48:17;;;;;;;50.23;30.82;;;;;;;5.12;85.66;101384.94;1732033;82;21668;-84
2021/11/11 08:50:43;;;;;;;47.25;28.92;;;;;;;5.15;85.63;101385.18;1731872;82;21141;-84
2021/11/11 08:53:10;;;;;;;48.38;28.15;;;;;;;5.13;85.55;101378.70;1731572;82;21418;-83
2021/11/11 08:55:36;;;;;;;49.95;30.43;;;;;;;5.13;85.51;101377.38;1731617;82;21076;-83
2021/11/11 08:58:03;;;;;;;51.18;33.95;;;;;;;5.14;85.45;101385.66;1732556;82;20998;-83
2021/11/11 09:00:32;;;;;;;56.70;36.80;;;;;;;5.19;85.38;101376.92;1730102;81;21081;-83
2021/11/11 09:03:01;;;;;;;48.73;31.00;;;;;;;5.26;85.33;101378.17;1731723;82;21511;-83
2021/11/11 09:05:31;;;;;;;47.15;32.83;;;;;;;5.31;85.30;101381.30;1726943;82;21008;-83
2021/11/11 09:07:56;;;;;;;53.33;32.53;;;;;;;5.33;85.24;101382.53;1702964;83;21079;-83
2021/11/11 09:10:22;;;;;;;49.35;32.95;;;;;;;5.37;85.17;101387.49;1672814;84;21023;-83
2021/11/11 09:12:50;;;;;;;53.08;35.50;;;;;;;5.40;85.10;101389.91;1702196;84;21003;-83
2021/11/11 09:15:18;;;;;;;49.20;31.42;;;;;;;5.43;85.06;101385.70;1703036;84;21187;-83
2021/11/11 09:17:44;;;;;;;49.50;32.08;;;;;;;5.46;85.01;101390.77;1672570;85;21101;-83
2021/11/11 09:20:12;;;;;;;49.77;29.65;;;;;;;5.49;84.94;101398.47;1702639;84;21007;-83
2021/11/11 09:22:38;;;;;;;49.55;31.15;;;;;;;5.53;84.87;101406.55;1702203;84;21069;-83
2021/11/11 09:25:06;;;;;;;50.03;30.88;;;;;;;5.56;84.82;101412.09;1717141;83;21061;-83
2021/11/11 09:27:33;;;;;;;53.08;32.33;;;;;;;5.57;84.75;101414.27;1703027;84;21301;-83
2021/11/11 09:29:59;;;;;;;51.15;32.83;;;;;;;5.59;84.71;101418.98;1672744;85;21070;-83
2021/11/11 09:32:25;;;;;;;55.00;34.25;;;;;;;5.59;84.65;101425.59;1702675;84;21013;-83
2021/11/11 09:34:51;;;;;;;54.45;31.97;;;;;;;5.57;84.59;101423.52;1717299;83;20988;-83
2021/11/11 09:37:19;;;;;;;48.78;30.52;;;;;;;5.56;84.50;101420.53;1703193;84;21011;-84
2021/11/11 09:39:45;;;;;;;51.02;31.95;;;;;;;5.54;84.42;101416.19;1673013;85;21082;-83
2021/11/11 09:42:11;;;;;;;51.55;33.53;;;;;;;5.57;84.40;101415.59;1703623;82;20993;-84
2021/11/11 09:44:37;;;;;;;50.30;33.50;;;;;;;5.62;84.35;101413.45;1730299;83;20966;-84
2021/11/11 09:47:04;;;;;;;53.25;33.83;;;;;;;5.64;84.31;101410.20;1730529;82;21533;-83
2021/11/11 09:49:30;;;;;;;48.05;32.38;;;;;;;5.64;84.24;101398.30;1730643;82;21022;-83
2021/11/11 09:51:57;;;;;;;52.75;33.45;;;;;;;5.64;84.17;101394.33;1730574;82;21144;-83
2021/11/11 09:59:37;;;;;;;53.78;34.58;;;;;;;5.75;84.01;101389.94;1730205;83;21057;-83
2021/11/11 10:02:04;;;;;;;61.53;37.95;;;;;;;5.82;83.97;101385.87;1730758;82;21034;-84
2021/11/11 10:04:32;;;;;;;53.65;35.68;;;;;;;5.88;83.92;101388.08;1730390;82;39257;-83
2021/11/11 10:06:58;;;;;;;59.63;40.80;;;;;;;5.90;83.84;101375.59;1730713;82;21026;-83
2021/11/11 10:09:25;;;;;;;54.30;34.65;;;;;;;5.97;83.81;101385.23;1730369;83;21095;-83
2021/11/11 10:12:00;;;;;;;52.05;34.03;;;;;;;5.99;83.74;101381.98;1730755;82;21013;-83
2021/11/11 10:14:36;;;;;;;55.38;35.35;;;;;;;6.02;83.71;101383.91;1730554;82;21620;-84
2021/11/11 10:17:07;;;;;;;50.80;32.60;;;;;;;6.06;83.65;101381.02;1730519;82;21279;-83
2021/11/11 10:19:37;;;;;;;53.80;33.60;;;;;;;6.10;83.62;101380.68;1729040;82;20998;-83
2021/11/11 10:22:07;;;;;;;;;;;;;;;6.13;83.57;101380.45;1733256;82;20994;-83
2021/11/11 10:24:45;;;;;;;57.38;35.95;;;;;;;6.22;83.52;101384.20;1730874;82;20276;-84
2021/11/11 10:27:32;;;;;;;53.78;33.20;;;;;;;6.23;83.47;101384.07;1730548;82;21010;-85
2021/11/11 10:30:27;;;;;;;56.33;36.40;;;;;;;6.26;83.43;101385.16;1730495;82;21759;-84
2021/11/11 10:33:09;;;;;;;55.52;32.48;;;;;;;6.30;83.36;101379.98;1730611;82;21021;-82
2021/11/11 10:35:38;;;;;;;54.30;36.45;;;;;;;6.34;83.29;101374.82;1730535;82;20990;-83
2021/11/11 10:38:10;;;;;;;63.85;36.70;;;;;;;6.40;83.23;101383.61;1730852;82;21085;-83
2021/11/11 10:40:45;;;;;;;57.00;36.05;;;;;;;6.48;83.20;101378.56;1730461;82;21014;-84
2021/11/11 10:43:13;;;;;;;58.75;35.65;;;;;;;6.56;83.12;101382.42;1743894;82;21788;-83
2021/11/11 10:45:42;;;;;;;54.30;36.38;;;;;;;6.60;83.09;101375.92;1749553;82;21011;-83
2021/11/11 10:48:11;;;;;;;59.23;39.70;;;;;;;6.64;83.01;101375.58;1749815;82;21018;-84
2021/11/11 10:50:40;;;;;;;58.83;35.98;;;;;;;6.74;82.97;101375.68;1749643;82;21542;-81
2021/11/11 10:53:09;;;;;;;59.27;35.15;;;;;;;6.78;82.90;101366.53;1749708;82;20999;-81
2021/11/11 10:55:39;;;;;;;59.33;34.73;;;;;;;6.82;82.83;101375.45;1751638;81;21141;-81
2021/11/11 10:58:15;;;;;;;56.23;34.43;;;;;;;6.87;82.79;101365.78;1766497;81;21089;-80
2021/11/11 11:01:03;;;;;;;60.45;37.78;;;;;;;6.95;82.72;101373.97;1754994;81;21093;-79
2021/11/11 11:03:32;;;;;;;58.85;37.90;;;;;;;6.97;82.64;101374.68;1781391;79;21005;-80
2021/11/11 11:06:07;;;;;;;65.57;39.63;;;;;;;7.00;82.56;101367.32;1774531;79;21030;-80
2021/11/11 11:08:51;;;;;;;61.28;39.20;;;;;;;7.02;82.50;101373.84;1705564;84;21899;-80
2021/11/11 11:11:25;;;;;;;64.15;39.67;;;;;;;7.07;82.45;101369.03;1706747;83;21053;-79
2021/11/11 11:13:54;;;;;;;54.98;36.58;;;;;;;7.17;82.41;101367.31;1754909;81;21035;-79
2021/11/11 11:16:30;;;;;;;54.48;35.43;;;;;;;7.22;82.33;101357.15;1767471;80;20988;-80
2021/11/11 11:19:00;;;;;;;49.23;33.15;;;;;;;7.24;82.24;101344.63;1760472;81;21027;-79
2021/11/11 11:21:29;;;;;;;51.08;33.80;;;;;;;7.30;82.19;101346.77;1757294;81;21255;-79
2021/11/11 11:24:02;;;;;;;53.52;35.08;;;;;;;7.37;82.12;101353.25;1758416;81;21012;-79
2021/11/11 11:26:35;;;;;;;54.25;34.33;;;;;;;7.46;82.08;101338.37;1765681;80;21111;-79
2021/11/11 11:29:16;;;;;;;57.45;37.20;;;;;;;7.50;82.00;101330.52;1767137;81;21528;-79
2021/11/11 11:31:51;;;;;;;50.60;32.95;;;;;;;7.52;81.92;101324.13;1734969;82;21000;-79
2021/11/11 11:34:24;;;;;;;48.68;33.40;;;;;;;7.57;81.87;101312.27;1756353;81;21809;-79
2021/11/11 11:36:55;;;;;;;53.87;35.85;;;;;;;7.59;81.79;101309.02;1766176;80;21046;-81
2021/11/11 11:39:36;;;;;;;57.15;37.88;;;;;;;7.63;81.74;101317.92;1767205;81;21113;-80
2021/11/11 11:42:09;;;;;;;62.23;41.18;;;;;;;7.69;81.66;101317.41;1766013;81;21459;-80
2021/11/11 11:44:44;;;;;;;79.45;48.52;;;;;;;7.75;81.59;101314.23;1764403;81;21061;-79
2021/11/11 11:50:13;;;;;;;72.42;43.33;;;;;;;7.85;81.43;101322.25;1764156;81;21511;-82
2021/11/11 11:52:44;;;;;;;60.00;36.55;;;;;;;7.81;81.32;101326.97;1762910;81;21527;-82